KNKX

Miramar MCAS Airport

San Diego, California, USA
METAR KNKX 232255Z 29009KT 10SM CLR 22/06 A3008 RMK AO2 SLP180 FU DSNT SE T02220061 $
Observed Flight Rules
Jan-23 @ 22:55 UTC (33 minutes ago) Visual Flight Rules
Wind Visibility Clouds
290° at 9 knots 10 miles
  • Clear skies
Temperatures Readings
Current 22°C / 72°F
Dewpoint 6°C / 43°F
Humidity 36%
Altimeter 30.08" Hg
Pressure 1018 hPa
Elevation 146
METAR KNKX 232255Z 29009KT 10SM CLR 22/06 A3008 RMK AO2 SLP180 FU DSNT SE T02220061 $
Observed Flight Rules
Jan-23 @ 22:55 UTC
(33 minutes ago)
VFR
Wind Visibility
290° at 9 knots 10 miles
Clouds
  • Clear skies
Temperature Dewpoint
22°C / 72°F 6°C / 43°F
Humidity Altimeter Pressure
36% 30.08" Hg 1018 hPa